Pagrindinis puslapis
METAR-TAF:

METAR-TAF

Oro uostai :

Arnhemas, Nyderlandai

platuma: 52-04N, ilguma: 005-53E, Aukštis: 48 m

Dabartinis oras

Ataskaita buvo paskelbta 19 minutes, ne 09:55 UTC
Vėjas 4 kt nuo kintamojo kryptimis
Temperatūra 16°C
Drėgmė 51%
Slėgis 1029 hPa
Matomumas 10 km arba daugiau
Apsiniaukę ne aukštis 32000 ft

METAR: EHDL 200955Z AUTO VRB04KT 9999 OVC320 16/06 Q1029 BLU

Laikas: 12:14 (10:14 UTC)

Prognozė

Ataskaita buvo paskelbta 17 valandos ir 39 minutes, ne 16:35 UTC
Prognozė galioja nuo 19 metu 17 UTC su 20 metu 05 UTC
Vėjas 5 kt iš Šiaurės
Matomumas 10 km arba daugiau
Išsisklaidę debesys ne aukštis 4000 ft
Tapsmas
nuo 19 metu 19 UTC su 19 metu 21 UTC
Vėjas 2 kt nuo kintamojo kryptimis
Tikimybė 30% :
Laikinai
nuo 20 metu 02 UTC su 20 metu 06 UTC
Matomumas: 3500 m
Sekli rūkas, rūkana

TAF: EHDL 191635Z 1917/2005 36005KT 9999 SCT040 BECMG 1919/1921 VRB02KT PROB30 TEMPO 2002/2006 3500 MIFG BR

Orai ataskaitas ir orų prognozės (METAR, TAF).

turimą stotys yra geltonos ir raudonos taškus žemėlapyje.

Perkelti pele per norėdami pamatyti stoties vardą.

Tada spustelėkite, norėdami matyti oro stebėjimo ir prognozės.

Norėdami pakeisti žemėlapį: spustelėkite ant žalios mygtukų su juodo kryžiaus žemyn,; žalią mygtuką su brūkšneliu, jei norite nutolinti; arba žalių rodyklių gretimoms žemėlapius.


METAR-TAF: